Nearby METAR Reports

 

KBED - Bedford, Massachusetts, USA
Distance from station: ENE 12mi, 20km
Updated: Sun, 24-Jan-2021 3:51pm EST
Clear
Clear
 Wind from WNW
Wind: WNW 20 mph , 31 km/h, Gust: 30 mph , 48 km/h
Temperature: 30°F , -1°C
Wind Chill: 17°F , -8°C
Dew Point: 1°F , -17°C
Humidity: 29%
Barometer: 29.92 inHg , 1013.2 hPa
Clouds: Clear
Visibility: 10 miles , 16 km
2021/01/24 20:51 KBED 242051Z 30017G26KT 10SM CLR M01/M17 A2992 RMK AO2 PK WND 29030/1958 SLP148 T10111167 53013
KFIT - Fitchburg, Massachusetts, USA
Distance from station: NW 15mi, 24km
Updated: Sun, 24-Jan-2021 3:52pm EST
Clear
Clear
 Wind from NW
Wind: NW 28 mph , 44 km/h, Gust: 35 mph , 56 km/h
Temperature: 27°F , -3°C
Wind Chill: 11°F , -12°C
Dew Point: -0°F , -18°C
Humidity: 31%
Barometer: 29.95 inHg , 1014.2 hPa
Clouds: Clear
Visibility: 10 miles , 16 km
2021/01/24 20:52 KFIT 242052Z AUTO 31024G30KT 10SM CLR M03/M18 A2995 RMK AO2 PK WND 32030/2051 SLP148 T10281183 53009
 
KORH - Worcester, Massachusetts, USA
Distance from station: WSW 20mi, 32km
Updated: Sun, 24-Jan-2021 2:54pm EST
Clear
Clear
 Wind from WNW
Wind: WNW 21 mph , 33 km/h, Gust: 36 mph , 57 km/h
Temperature: 27°F , -3°C
Wind Chill: 13°F , -11°C
Dew Point: -0°F , -18°C
Humidity: 31%
Barometer: 29.90 inHg , 1012.5 hPa
Clouds: Clear
Visibility: 10 miles , 16 km
2021/01/24 19:54 KORH 241954Z 30018G31KT 10SM CLR M03/M18 A2990 RMK AO2 PK WND 30035/1932 SLP142 T10331183
KOWD - Norwood, Massachusetts, USA
Distance from station: SE 24mi, 39km
Updated: Sun, 24-Jan-2021 3:53pm EST
Clear
Clear
 Wind from NW
Wind: NW 20 mph , 31 km/h, Gust: 33 mph , 54 km/h
Temperature: 32°F , 0°C
Wind Chill: 20°F , -7°C
Dew Point: -0°F , -18°C
Humidity: 25%
Barometer: 29.93 inHg , 1013.5 hPa
Clouds: Clear
Visibility: 10 miles , 16 km
2021/01/24 20:53 KOWD 242053Z 31017G29KT 10SM CLR 00/M18 A2993 RMK AO2 PK WND 31029/2008 SLP134 60000 T00001178 53008
 
KMQE - East Milton, Massachusetts, USA
Distance from station: ESE 25mi, 40km
Updated: Sun, 24-Jan-2021 3:51pm EST

 Wind from WNW
Wind: WNW 17 mph , 28 km/h, Gust: 32 mph , 52 km/h
Temperature: 27°F , -3°C
Wind Chill: 14°F , -10°C
Dew Point: 1°F , -17°C
Humidity: 33%
Barometer: 29.87 inHg , 1011.5 hPa
2021/01/24 20:51 KMQE 242051Z AUTO 29015G28KT M03/M17 A2987 RMK AO1 PK WND 28029/2027 SLP134 T10281167 53014
KASH - Nashua/Boire Fld, New Hampshire, USA
Distance from station: N 26mi, 42km
Updated: Sun, 24-Jan-2021 2:56pm EST
Clear
Clear
 Wind from WNW
Wind: WNW 23 mph , 37 km/h, Gust: 33 mph , 54 km/h
Temperature: 28°F , -2°C
Wind Chill: 14°F , -10°C
Dew Point: 3°F , -16°C
Humidity: 34%
Barometer: 29.92 inHg , 1013.2 hPa
Clouds: Clear
Visibility: 10 miles , 16 km
2021/01/24 19:56 KASH 241956Z 30020G29KT 10SM CLR M02/M16 A2992 RMK AO2 PK WND 31029/1954 SLP140 T10221156
 
KBOS - Boston, Massachusetts, USA
Distance from station: E 26mi, 42km
Updated: Sun, 24-Jan-2021 2:54pm EST
Partly cloudy
Partly cloudy
 Wind from WNW
Wind: WNW 21 mph , 33 km/h, Gust: 37 mph , 59 km/h
Temperature: 30°F , -1°C
Wind Chill: 17°F , -8°C
Dew Point: 1°F , -17°C
Humidity: 29%
Barometer: 29.90 inHg , 1012.5 hPa
Clouds: Partly cloudy
Visibility: 10 miles , 16 km
Cloud details: Few Clouds 15000 ft
Partly cloudy 22000 ft
2021/01/24 19:54 KBOS 241954Z 29018G32KT 10SM FEW150 SCT220 M01/M17 A2990 RMK AO2 PK WND 31033/1907 SLP124 T10111172 $
KLWM - Lawrence, Massachusetts, USA
Distance from station: NE 29mi, 47km
Updated: Sun, 24-Jan-2021 2:54pm EST
Clear
Clear
 Wind from NW
Wind: NW 21 mph , 33 km/h, Gust: 31 mph , 50 km/h
Temperature: 30°F , -1°C
Wind Chill: 17°F , -8°C
Dew Point: 7°F , -14°C
Humidity: 37%
Barometer: 29.90 inHg , 1012.5 hPa
Clouds: Clear
Visibility: 10 miles , 16 km
2021/01/24 19:54 KLWM 241954Z 31018G27KT 10SM CLR M01/M14 A2990 RMK AO2 PK WND 29033/1916 SLP125 T10111144
 
KBVY - Beverly, Massachusetts, USA
Distance from station: ENE 33mi, 54km
Updated: Sun, 24-Jan-2021 3:53pm EST
Clear
Clear
 Wind from WNW
Wind: WNW 22 mph , 35 km/h, Gust: 31 mph , 50 km/h
Temperature: 30°F , -1°C
Wind Chill: 17°F , -8°C
Dew Point: 7°F , -14°C
Humidity: 37%
Barometer: 29.87 inHg , 1011.5 hPa
Clouds: Clear
Visibility: 10 miles , 16 km
2021/01/24 20:53 KBVY 242053Z 30019G27KT 10SM CLR M01/M14 A2987 RMK AO2 PK WND 32034/2036 SLP114 T10061144 53013
KSFZ - Pawtucket, Rhode Island, USA
Distance from station: S 34mi, 54km
Updated: Sun, 24-Jan-2021 2:56pm EST
Clear
Clear
 Wind from NW
Wind: NW 17 mph , 28 km/h, Gust: 26 mph , 43 km/h
Temperature: 28°F , -2°C
Wind Chill: 16°F , -9°C
Dew Point: 3°F , -16°C
Humidity: 34%
Barometer: 29.91 inHg , 1012.9 hPa
Clouds: Clear
Visibility: 10 miles , 16 km
2021/01/24 19:56 KSFZ 241956Z AUTO 31015G23KT 10SM CLR M02/M16 A2991 RMK AO2 PK WND 29028/1923 SLP080 P0004 T10171161 FZRANO $
 
KAFN - Jaffrey, New Hampshire, USA
Distance from station: NW 36mi, 59km
Updated: Sun, 24-Jan-2021 3:52pm EST
Clear
Clear
 Wind from NNW
Wind: NNW 9 mph , 15 km/h, Gust: 26 mph , 43 km/h
Temperature: 25°F , -4°C
Wind Chill: 16°F , -9°C
Dew Point: -0°F , -18°C
Humidity: 33%
Barometer: 29.92 inHg , 1013.2 hPa
Clouds: Clear
Visibility: 10 miles , 16 km
2021/01/24 20:52 KAFN 242052Z AUTO 34008G23KT 10SM CLR M04/M18 A2992 RMK AO2 SLP156 T10441183 53005
KMHT - Manchester, New Hampshire, USA
Distance from station: N 37mi, 59km
Updated: Sun, 24-Jan-2021 3:53pm EST
Mostly cloudy
Mostly cloudy
 Wind from NW
Wind: NW 13 mph , 20 km/h, Gust: 23 mph , 37 km/h
Temperature: 28°F , -2°C
Wind Chill: 17°F , -8°C
Dew Point: 3°F , -16°C
Humidity: 34%
Barometer: 29.92 inHg , 1013.2 hPa
Clouds: Mostly cloudy
Visibility: 10 miles , 16 km
Cloud details: Mostly cloudy 25000 ft
2021/01/24 20:53 KMHT 242053Z 31011G20KT 10SM BKN250 M02/M16 A2992 RMK AO2 PK WND 31033/2004 SLP153 T10171156 53012
 
KORE - Orange, Massachusetts, USA
Distance from station: WNW 40mi, 65km
Updated: Sun, 24-Jan-2021 3:52pm EST
Clear
Clear
 Wind from NW
Wind: NW 8 mph , 13 km/h
Temperature: 27°F , -3°C
Wind Chill: 19°F , -7°C
Dew Point: -2°F , -19°C
Humidity: 28%
Barometer: 29.99 inHg , 1015.6 hPa
Clouds: Clear
Visibility: 10 miles , 16 km
2021/01/24 20:52 KORE 242052Z AUTO 31007KT 10SM CLR M03/M19 A2999 RMK AO2 SLP165 T10281189 53006
KTAN - Taunton, Massachusetts, USA
Distance from station: SE 45mi, 72km
Updated: Sun, 24-Jan-2021 3:52pm EST
Clear
Clear
 Wind from NW
Wind: NW 13 mph , 20 km/h, Gust: 24 mph , 39 km/h
Temperature: 32°F , 0°C
Wind Chill: 22°F , -6°C
Dew Point: -0°F , -18°C
Humidity: 25%
Barometer: 29.92 inHg , 1013.2 hPa
Clouds: Clear
Visibility: 10 miles , 16 km
2021/01/24 20:52 KTAN 242052Z AUTO 31011G21KT 10SM CLR 00/M18 A2992 RMK AO2 SLP131 T00001178 53008
 
KPVD - Providence/Green, Rhode Island, USA
Distance from station: S 48mi, 77km
Updated: Sun, 24-Jan-2021 3:51pm EST
Partly cloudy
Partly cloudy
 Wind from NW
Wind: NW 18 mph , 30 km/h, Gust: 29 mph , 46 km/h
Temperature: 30°F , -1°C
Wind Chill: 18°F , -8°C
Dew Point: -0°F , -18°C
Humidity: 26%
Barometer: 29.96 inHg , 1014.6 hPa
Clouds: Partly cloudy
Visibility: 10 miles , 16 km
Cloud details: Few Clouds 25000 ft
Partly cloudy 30000 ft
2021/01/24 20:51 KPVD 242051Z 31016G25KT 10SM FEW250 SCT300 M01/M18 A2996 RMK AO2 PK WND 30028/2022 SLP144 T10111183 53003
KGHG - Marshfield, Massachusetts, USA
Distance from station: ESE 49mi, 79km
Updated: Sun, 24-Jan-2021 3:35pm EST
Clear
Clear
 Wind from WNW
Wind: WNW 12 mph , 19 km/h, Gust: 28 mph , 44 km/h
Temperature: 34°F , 1°C
Wind Chill: 25°F , -4°C
Dew Point: 3°F , -16°C
Humidity: 27%
Barometer: 29.88 inHg , 1011.9 hPa
Clouds: Clear
Visibility: 10 miles , 16 km
2021/01/24 20:35 KGHG 242035Z AUTO 29010G24KT 260V340 10SM CLR 01/M16 A2988 RMK AO2
 
KEEN - Keene/Dillant, New Hampshire, USA
Distance from station: NW 50mi, 81km
Updated: Sun, 24-Jan-2021 2:56pm EST
Clear
Clear
 Wind from WNW
Wind: WNW 14 mph , 22 km/h, Gust: 22 mph , 35 km/h
Temperature: 27°F , -3°C
Wind Chill: 16°F , -9°C
Dew Point: 1°F , -17°C
Humidity: 33%
Barometer: 29.97 inHg , 1014.9 hPa
Clouds: Clear
Visibility: 10 miles , 16 km
2021/01/24 19:56 KEEN 241956Z AUTO 30012G19KT 10SM CLR M03/M17 A2997 RMK AO2 SLP163 T10331167 FZRANO $